sensor_id;sensor_type;location;lat;lon;timestamp;P1;durP1;ratioP1;P2;durP2;ratioP2
37284;SDS011;23172;53.550;9.964;2023-02-15T00:03:33;45.33;;;26.08;;
37284;SDS011;23172;53.550;9.964;2023-02-15T00:08:35;46.85;;;25.13;;
37284;SDS011;23172;53.550;9.964;2023-02-15T00:13:37;36.97;;;22.63;;
37284;SDS011;23172;53.550;9.964;2023-02-15T00:18:43;38.30;;;22.13;;
37284;SDS011;23172;53.550;9.964;2023-02-15T00:23:45;53.33;;;28.63;;
37284;SDS011;23172;53.550;9.964;2023-02-15T00:28:47;51.70;;;24.20;;
37284;SDS011;23172;53.550;9.964;2023-02-15T00:33:50;83.82;;;29.42;;
37284;SDS011;23172;53.550;9.964;2023-02-15T00:38:52;61.45;;;26.83;;
37284;SDS011;23172;53.550;9.964;2023-02-15T00:43:54;40.58;;;24.25;;
37284;SDS011;23172;53.550;9.964;2023-02-15T00:48:57;45.08;;;25.90;;
37284;SDS011;23172;53.550;9.964;2023-02-15T00:53:59;52.65;;;26.90;;
37284;SDS011;23172;53.550;9.964;2023-02-15T00:59:02;36.33;;;22.77;;
37284;SDS011;23172;53.550;9.964;2023-02-15T01:04:05;37.60;;;22.20;;
37284;SDS011;23172;53.550;9.964;2023-02-15T01:09:08;36.28;;;22.27;;
37284;SDS011;23172;53.550;9.964;2023-02-15T01:14:09;44.08;;;25.67;;
37284;SDS011;23172;53.550;9.964;2023-02-15T01:19:14;45.00;;;23.70;;
37284;SDS011;23172;53.550;9.964;2023-02-15T01:24:16;36.55;;;23.25;;
37284;SDS011;23172;53.550;9.964;2023-02-15T01:29:18;41.78;;;24.08;;
37284;SDS011;23172;53.550;9.964;2023-02-15T01:34:21;34.67;;;21.80;;
37284;SDS011;23172;53.550;9.964;2023-02-15T01:39:23;42.88;;;24.17;;
37284;SDS011;23172;53.550;9.964;2023-02-15T01:50:02;46.83;;;24.42;;
37284;SDS011;23172;53.550;9.964;2023-02-15T01:55:10;38.55;;;22.85;;
37284;SDS011;23172;53.550;9.964;2023-02-15T02:00:13;25.52;;;17.45;;
37284;SDS011;23172;53.550;9.964;2023-02-15T02:05:18;41.30;;;22.98;;
37284;SDS011;23172;53.550;9.964;2023-02-15T02:10:21;42.83;;;24.20;;
37284;SDS011;23172;53.550;9.964;2023-02-15T02:15:25;39.88;;;23.27;;
37284;SDS011;23172;53.550;9.964;2023-02-15T02:31:55;52.55;;;25.98;;
37284;SDS011;23172;53.550;9.964;2023-02-15T02:37:17;34.22;;;20.42;;
37284;SDS011;23172;53.550;9.964;2023-02-15T02:42:25;39.85;;;21.85;;
37284;SDS011;23172;53.550;9.964;2023-02-15T02:47:36;46.30;;;24.52;;
37284;SDS011;23172;53.550;9.964;2023-02-15T02:52:44;46.30;;;25.50;;
37284;SDS011;23172;53.550;9.964;2023-02-15T02:57:52;39.28;;;21.98;;
37284;SDS011;23172;53.550;9.964;2023-02-15T03:02:58;30.45;;;20.45;;
37284;SDS011;23172;53.550;9.964;2023-02-15T03:08:06;29.55;;;18.98;;
37284;SDS011;23172;53.550;9.964;2023-02-15T03:13:09;32.78;;;20.02;;
37284;SDS011;23172;53.550;9.964;2023-02-15T03:18:11;45.47;;;22.75;;
37284;SDS011;23172;53.550;9.964;2023-02-15T03:23:16;50.33;;;24.58;;
37284;SDS011;23172;53.550;9.964;2023-02-15T03:28:23;38.75;;;22.42;;
37284;SDS011;23172;53.550;9.964;2023-02-15T03:33:30;33.33;;;20.25;;
37284;SDS011;23172;53.550;9.964;2023-02-15T03:38:35;60.28;;;25.70;;
37284;SDS011;23172;53.550;9.964;2023-02-15T03:43:45;37.17;;;19.90;;
37284;SDS011;23172;53.550;9.964;2023-02-15T03:48:53;29.92;;;20.92;;
37284;SDS011;23172;53.550;9.964;2023-02-15T03:53:59;67.15;;;26.02;;
37284;SDS011;23172;53.550;9.964;2023-02-15T03:59:08;39.42;;;20.85;;
37284;SDS011;23172;53.550;9.964;2023-02-15T04:04:31;47.47;;;24.40;;
37284;SDS011;23172;53.550;9.964;2023-02-15T04:09:37;33.28;;;22.08;;
37284;SDS011;23172;53.550;9.964;2023-02-15T04:14:56;36.28;;;21.33;;
37284;SDS011;23172;53.550;9.964;2023-02-15T04:20:15;33.00;;;19.92;;
37284;SDS011;23172;53.550;9.964;2023-02-15T04:25:37;43.65;;;22.27;;
37284;SDS011;23172;53.550;9.964;2023-02-15T04:30:41;38.63;;;20.63;;
37284;SDS011;23172;53.550;9.964;2023-02-15T04:35:43;41.70;;;22.92;;
37284;SDS011;23172;53.550;9.964;2023-02-15T04:40:51;39.67;;;22.45;;
37284;SDS011;23172;53.550;9.964;2023-02-15T04:45:54;32.33;;;21.63;;
37284;SDS011;23172;53.550;9.964;2023-02-15T04:50:56;37.63;;;20.42;;
37284;SDS011;23172;53.550;9.964;2023-02-15T04:56:02;30.10;;;19.80;;
37284;SDS011;23172;53.550;9.964;2023-02-15T05:01:04;24.08;;;16.77;;
37284;SDS011;23172;53.550;9.964;2023-02-15T05:06:10;28.17;;;19.25;;
37284;SDS011;23172;53.550;9.964;2023-02-15T05:11:13;28.35;;;18.05;;
37284;SDS011;23172;53.550;9.964;2023-02-15T05:16:17;28.42;;;16.33;;
37284;SDS011;23172;53.550;9.964;2023-02-15T05:21:20;29.55;;;15.93;;
37284;SDS011;23172;53.550;9.964;2023-02-15T05:26:24;32.63;;;17.60;;
37284;SDS011;23172;53.550;9.964;2023-02-15T05:31:44;35.70;;;18.45;;
37284;SDS011;23172;53.550;9.964;2023-02-15T05:36:48;38.70;;;19.05;;
37284;SDS011;23172;53.550;9.964;2023-02-15T05:41:51;45.40;;;19.77;;
37284;SDS011;23172;53.550;9.964;2023-02-15T05:46:53;36.05;;;18.88;;
37284;SDS011;23172;53.550;9.964;2023-02-15T05:51:58;27.23;;;18.70;;
37284;SDS011;23172;53.550;9.964;2023-02-15T05:57:02;36.00;;;20.23;;
37284;SDS011;23172;53.550;9.964;2023-02-15T06:02:04;20.52;;;15.40;;
37284;SDS011;23172;53.550;9.964;2023-02-15T06:07:17;28.75;;;19.02;;
37284;SDS011;23172;53.550;9.964;2023-02-15T06:12:28;23.58;;;15.77;;
37284;SDS011;23172;53.550;9.964;2023-02-15T06:17:31;23.17;;;16.25;;
37284;SDS011;23172;53.550;9.964;2023-02-15T06:22:34;26.08;;;17.27;;
37284;SDS011;23172;53.550;9.964;2023-02-15T06:27:37;38.45;;;19.98;;
37284;SDS011;23172;53.550;9.964;2023-02-15T06:32:42;31.08;;;18.42;;
37284;SDS011;23172;53.550;9.964;2023-02-15T06:37:45;28.15;;;17.60;;
37284;SDS011;23172;53.550;9.964;2023-02-15T06:42:49;32.35;;;19.52;;
37284;SDS011;23172;53.550;9.964;2023-02-15T06:47:50;36.75;;;18.73;;
37284;SDS011;23172;53.550;9.964;2023-02-15T06:52:55;26.33;;;16.83;;
37284;SDS011;23172;53.550;9.964;2023-02-15T06:58:00;34.17;;;18.38;;
37284;SDS011;23172;53.550;9.964;2023-02-15T07:03:04;44.15;;;17.95;;
37284;SDS011;23172;53.550;9.964;2023-02-15T07:08:06;24.85;;;16.92;;
37284;SDS011;23172;53.550;9.964;2023-02-15T07:13:09;24.02;;;15.75;;
37284;SDS011;23172;53.550;9.964;2023-02-15T07:18:12;29.98;;;17.13;;
37284;SDS011;23172;53.550;9.964;2023-02-15T07:23:14;35.70;;;20.13;;
37284;SDS011;23172;53.550;9.964;2023-02-15T07:28:17;22.85;;;16.20;;
37284;SDS011;23172;53.550;9.964;2023-02-15T07:33:19;38.13;;;20.98;;
37284;SDS011;23172;53.550;9.964;2023-02-15T07:38:24;34.67;;;19.35;;
37284;SDS011;23172;53.550;9.964;2023-02-15T07:43:29;23.75;;;17.45;;
37284;SDS011;23172;53.550;9.964;2023-02-15T07:48:31;38.00;;;19.38;;
37284;SDS011;23172;53.550;9.964;2023-02-15T07:53:34;25.98;;;17.13;;
37284;SDS011;23172;53.550;9.964;2023-02-15T07:58:38;26.10;;;16.90;;
37284;SDS011;23172;53.550;9.964;2023-02-15T08:03:52;23.88;;;16.58;;
37284;SDS011;23172;53.550;9.964;2023-02-15T08:08:55;44.92;;;21.02;;
37284;SDS011;23172;53.550;9.964;2023-02-15T08:13:59;28.05;;;17.45;;
37284;SDS011;23172;53.550;9.964;2023-02-15T08:19:05;31.00;;;18.27;;
37284;SDS011;23172;53.550;9.964;2023-02-15T08:24:08;31.17;;;17.73;;
37284;SDS011;23172;53.550;9.964;2023-02-15T08:29:13;22.48;;;16.30;;
37284;SDS011;23172;53.550;9.964;2023-02-15T08:34:16;38.53;;;20.83;;
37284;SDS011;23172;53.550;9.964;2023-02-15T08:39:19;29.85;;;18.83;;
37284;SDS011;23172;53.550;9.964;2023-02-15T08:44:23;37.03;;;19.33;;
37284;SDS011;23172;53.550;9.964;2023-02-15T08:49:25;34.33;;;18.52;;
37284;SDS011;23172;53.550;9.964;2023-02-15T08:54:27;32.85;;;17.83;;
37284;SDS011;23172;53.550;9.964;2023-02-15T08:59:31;20.80;;;14.98;;
37284;SDS011;23172;53.550;9.964;2023-02-15T09:04:33;22.88;;;16.42;;
37284;SDS011;23172;53.550;9.964;2023-02-15T09:09:35;25.02;;;16.45;;
37284;SDS011;23172;53.550;9.964;2023-02-15T09:14:39;28.63;;;18.95;;
37284;SDS011;23172;53.550;9.964;2023-02-15T09:19:41;26.70;;;17.23;;
37284;SDS011;23172;53.550;9.964;2023-02-15T09:24:43;26.80;;;17.98;;
37284;SDS011;23172;53.550;9.964;2023-02-15T09:29:47;29.23;;;18.90;;
37284;SDS011;23172;53.550;9.964;2023-02-15T09:34:49;23.38;;;16.83;;
37284;SDS011;23172;53.550;9.964;2023-02-15T09:39:51;25.05;;;17.00;;
37284;SDS011;23172;53.550;9.964;2023-02-15T09:50:23;25.17;;;17.42;;
37284;SDS011;23172;53.550;9.964;2023-02-15T09:55:37;28.35;;;19.52;;
37284;SDS011;23172;53.550;9.964;2023-02-15T10:00:53;21.10;;;16.45;;
37284;SDS011;23172;53.550;9.964;2023-02-15T10:11:38;26.52;;;19.67;;
37284;SDS011;23172;53.550;9.964;2023-02-15T10:16:54;22.13;;;16.65;;
37284;SDS011;23172;53.550;9.964;2023-02-15T10:22:08;25.08;;;18.25;;
37284;SDS011;23172;53.550;9.964;2023-02-15T10:27:20;22.08;;;16.83;;
37284;SDS011;23172;53.550;9.964;2023-02-15T10:32:24;20.25;;;15.75;;
37284;SDS011;23172;53.550;9.964;2023-02-15T10:37:33;24.48;;;18.85;;
37284;SDS011;23172;53.550;9.964;2023-02-15T10:42:51;28.77;;;21.02;;
37284;SDS011;23172;53.550;9.964;2023-02-15T10:48:24;24.55;;;19.00;;
37284;SDS011;23172;53.550;9.964;2023-02-15T10:59:10;23.77;;;18.30;;
37284;SDS011;23172;53.550;9.964;2023-02-15T11:04:44;29.00;;;21.13;;
37284;SDS011;23172;53.550;9.964;2023-02-15T11:09:53;27.77;;;20.88;;
37284;SDS011;23172;53.550;9.964;2023-02-15T11:15:02;23.13;;;18.55;;
37284;SDS011;23172;53.550;9.964;2023-02-15T11:20:16;30.27;;;22.17;;
37284;SDS011;23172;53.550;9.964;2023-02-15T11:25:25;25.38;;;19.27;;
37284;SDS011;23172;53.550;9.964;2023-02-15T11:30:34;29.45;;;21.90;;
37284;SDS011;23172;53.550;9.964;2023-02-15T11:35:48;21.27;;;16.20;;
37284;SDS011;23172;53.550;9.964;2023-02-15T11:40:53;22.83;;;17.25;;
37284;SDS011;23172;53.550;9.964;2023-02-15T11:45:57;25.50;;;20.50;;
37284;SDS011;23172;53.550;9.964;2023-02-15T11:51:01;27.17;;;19.98;;
37284;SDS011;23172;53.550;9.964;2023-02-15T11:56:04;27.55;;;21.77;;
37284;SDS011;23172;53.550;9.964;2023-02-15T12:01:15;23.90;;;19.13;;
37284;SDS011;23172;53.550;9.964;2023-02-15T12:06:23;30.00;;;23.35;;
37284;SDS011;23172;53.550;9.964;2023-02-15T12:11:30;28.05;;;21.55;;
37284;SDS011;23172;53.550;9.964;2023-02-15T12:16:40;21.75;;;17.90;;
37284;SDS011;23172;53.550;9.964;2023-02-15T12:21:48;21.13;;;18.15;;
37284;SDS011;23172;53.550;9.964;2023-02-15T12:26:56;30.08;;;22.10;;
37284;SDS011;23172;53.550;9.964;2023-02-15T12:31:59;25.80;;;19.67;;
37284;SDS011;23172;53.550;9.964;2023-02-15T12:37:11;23.33;;;19.30;;
37284;SDS011;23172;53.550;9.964;2023-02-15T12:42:18;26.58;;;21.70;;
37284;SDS011;23172;53.550;9.964;2023-02-15T12:47:20;29.67;;;21.73;;
37284;SDS011;23172;53.550;9.964;2023-02-15T12:52:25;25.73;;;21.00;;
37284;SDS011;23172;53.550;9.964;2023-02-15T12:57:28;32.15;;;23.58;;
37284;SDS011;23172;53.550;9.964;2023-02-15T13:02:33;21.33;;;17.30;;
37284;SDS011;23172;53.550;9.964;2023-02-15T13:07:45;27.20;;;20.83;;
37284;SDS011;23172;53.550;9.964;2023-02-15T13:12:51;23.48;;;18.20;;
37284;SDS011;23172;53.550;9.964;2023-02-15T13:17:55;25.17;;;18.88;;
37284;SDS011;23172;53.550;9.964;2023-02-15T13:23:00;28.92;;;20.85;;
37284;SDS011;23172;53.550;9.964;2023-02-15T13:28:06;27.80;;;22.33;;
37284;SDS011;23172;53.550;9.964;2023-02-15T13:33:17;28.25;;;21.92;;
37284;SDS011;23172;53.550;9.964;2023-02-15T13:38:35;23.38;;;18.92;;
37284;SDS011;23172;53.550;9.964;2023-02-15T13:43:53;21.65;;;19.20;;
37284;SDS011;23172;53.550;9.964;2023-02-15T13:49:12;20.15;;;17.10;;
37284;SDS011;23172;53.550;9.964;2023-02-15T13:54:31;23.45;;;20.10;;
37284;SDS011;23172;53.550;9.964;2023-02-15T13:59:53;19.65;;;16.15;;
37284;SDS011;23172;53.550;9.964;2023-02-15T14:05:15;17.95;;;14.63;;
37284;SDS011;23172;53.550;9.964;2023-02-15T14:10:38;16.45;;;14.35;;
37284;SDS011;23172;53.550;9.964;2023-02-15T14:15:54;14.45;;;12.70;;
37284;SDS011;23172;53.550;9.964;2023-02-15T14:21:05;13.10;;;11.55;;
37284;SDS011;23172;53.550;9.964;2023-02-15T14:26:14;17.00;;;14.52;;
37284;SDS011;23172;53.550;9.964;2023-02-15T14:31:24;16.10;;;14.02;;
37284;SDS011;23172;53.550;9.964;2023-02-15T14:36:30;17.55;;;14.00;;
37284;SDS011;23172;53.550;9.964;2023-02-15T14:41:36;16.70;;;14.63;;
37284;SDS011;23172;53.550;9.964;2023-02-15T14:46:46;16.30;;;12.27;;
37284;SDS011;23172;53.550;9.964;2023-02-15T14:51:57;13.85;;;10.50;;
37284;SDS011;23172;53.550;9.964;2023-02-15T15:02:29;12.90;;;11.63;;
37284;SDS011;23172;53.550;9.964;2023-02-15T15:07:44;13.32;;;11.93;;
37284;SDS011;23172;53.550;9.964;2023-02-15T15:12:52;14.73;;;13.10;;
37284;SDS011;23172;53.550;9.964;2023-02-15T15:17:57;14.23;;;12.73;;
37284;SDS011;23172;53.550;9.964;2023-02-15T15:28:56;18.65;;;14.68;;
37284;SDS011;23172;53.550;9.964;2023-02-15T15:40:00;21.77;;;17.02;;
37284;SDS011;23172;53.550;9.964;2023-02-15T15:45:48;22.33;;;18.15;;
37284;SDS011;23172;53.550;9.964;2023-02-15T15:51:18;14.75;;;13.18;;
37284;SDS011;23172;53.550;9.964;2023-02-15T15:56:24;15.48;;;13.63;;
37284;SDS011;23172;53.550;9.964;2023-02-15T16:01:35;17.55;;;15.38;;
37284;SDS011;23172;53.550;9.964;2023-02-15T16:06:41;19.58;;;15.60;;
37284;SDS011;23172;53.550;9.964;2023-02-15T16:11:46;25.90;;;19.23;;
37284;SDS011;23172;53.550;9.964;2023-02-15T16:16:51;17.00;;;14.85;;
37284;SDS011;23172;53.550;9.964;2023-02-15T16:21:57;21.40;;;17.02;;
37284;SDS011;23172;53.550;9.964;2023-02-15T16:27:08;23.42;;;19.33;;
37284;SDS011;23172;53.550;9.964;2023-02-15T16:32:29;21.23;;;16.13;;
37284;SDS011;23172;53.550;9.964;2023-02-15T16:37:36;19.65;;;16.27;;
37284;SDS011;23172;53.550;9.964;2023-02-15T16:42:38;20.80;;;16.73;;
37284;SDS011;23172;53.550;9.964;2023-02-15T16:47:43;23.17;;;19.50;;
37284;SDS011;23172;53.550;9.964;2023-02-15T16:52:48;28.00;;;20.05;;
37284;SDS011;23172;53.550;9.964;2023-02-15T16:57:51;25.13;;;20.38;;
37284;SDS011;23172;53.550;9.964;2023-02-15T17:03:00;23.05;;;18.70;;
37284;SDS011;23172;53.550;9.964;2023-02-15T17:08:06;23.83;;;19.02;;
37284;SDS011;23172;53.550;9.964;2023-02-15T17:13:15;26.08;;;19.80;;
37284;SDS011;23172;53.550;9.964;2023-02-15T17:18:20;24.92;;;20.95;;
37284;SDS011;23172;53.550;9.964;2023-02-15T17:23:25;24.35;;;19.27;;
37284;SDS011;23172;53.550;9.964;2023-02-15T17:28:31;22.00;;;18.63;;
37284;SDS011;23172;53.550;9.964;2023-02-15T17:33:37;20.58;;;17.65;;
37284;SDS011;23172;53.550;9.964;2023-02-15T17:38:40;26.05;;;19.92;;
37284;SDS011;23172;53.550;9.964;2023-02-15T17:44:01;22.98;;;18.88;;
37284;SDS011;23172;53.550;9.964;2023-02-15T17:49:16;27.17;;;21.42;;
37284;SDS011;23172;53.550;9.964;2023-02-15T17:54:24;25.02;;;20.80;;
37284;SDS011;23172;53.550;9.964;2023-02-15T17:59:43;26.17;;;21.23;;
37284;SDS011;23172;53.550;9.964;2023-02-15T18:05:07;24.73;;;20.27;;
37284;SDS011;23172;53.550;9.964;2023-02-15T18:10:31;25.58;;;20.73;;
37284;SDS011;23172;53.550;9.964;2023-02-15T18:15:54;27.02;;;21.05;;
37284;SDS011;23172;53.550;9.964;2023-02-15T18:20:59;27.05;;;22.50;;
37284;SDS011;23172;53.550;9.964;2023-02-15T18:26:01;29.23;;;22.95;;
37284;SDS011;23172;53.550;9.964;2023-02-15T18:31:04;30.73;;;23.85;;
37284;SDS011;23172;53.550;9.964;2023-02-15T18:36:08;28.25;;;23.92;;
37284;SDS011;23172;53.550;9.964;2023-02-15T18:41:16;28.95;;;23.15;;
37284;SDS011;23172;53.550;9.964;2023-02-15T18:46:19;27.67;;;22.10;;
37284;SDS011;23172;53.550;9.964;2023-02-15T18:51:22;26.50;;;20.38;;
37284;SDS011;23172;53.550;9.964;2023-02-15T18:56:25;26.02;;;21.48;;
37284;SDS011;23172;53.550;9.964;2023-02-15T19:01:31;24.83;;;19.90;;
37284;SDS011;23172;53.550;9.964;2023-02-15T19:06:35;30.98;;;22.05;;
37284;SDS011;23172;53.550;9.964;2023-02-15T19:11:40;25.77;;;20.58;;
37284;SDS011;23172;53.550;9.964;2023-02-15T19:16:42;25.83;;;20.65;;
37284;SDS011;23172;53.550;9.964;2023-02-15T19:21:48;24.27;;;19.50;;
37284;SDS011;23172;53.550;9.964;2023-02-15T19:26:51;32.42;;;23.60;;
37284;SDS011;23172;53.550;9.964;2023-02-15T19:31:53;25.42;;;19.33;;
37284;SDS011;23172;53.550;9.964;2023-02-15T19:37:00;30.55;;;24.63;;
37284;SDS011;23172;53.550;9.964;2023-02-15T19:42:04;31.35;;;25.08;;
37284;SDS011;23172;53.550;9.964;2023-02-15T19:47:09;29.08;;;22.17;;
37284;SDS011;23172;53.550;9.964;2023-02-15T19:52:16;36.03;;;26.50;;
37284;SDS011;23172;53.550;9.964;2023-02-15T19:57:23;32.03;;;25.58;;
37284;SDS011;23172;53.550;9.964;2023-02-15T20:02:26;29.33;;;23.40;;
37284;SDS011;23172;53.550;9.964;2023-02-15T20:07:32;34.50;;;27.35;;
37284;SDS011;23172;53.550;9.964;2023-02-15T20:12:34;37.55;;;28.15;;
37284;SDS011;23172;53.550;9.964;2023-02-15T20:17:36;29.10;;;22.25;;
37284;SDS011;23172;53.550;9.964;2023-02-15T20:22:39;30.33;;;24.55;;
37284;SDS011;23172;53.550;9.964;2023-02-15T20:27:42;36.25;;;28.88;;
37284;SDS011;23172;53.550;9.964;2023-02-15T20:32:44;34.90;;;26.48;;
37284;SDS011;23172;53.550;9.964;2023-02-15T20:37:48;37.03;;;28.63;;
37284;SDS011;23172;53.550;9.964;2023-02-15T20:42:52;44.85;;;33.97;;
37284;SDS011;23172;53.550;9.964;2023-02-15T20:47:54;46.92;;;34.42;;
37284;SDS011;23172;53.550;9.964;2023-02-15T20:52:58;42.28;;;32.45;;
37284;SDS011;23172;53.550;9.964;2023-02-15T20:58:01;40.47;;;32.47;;
37284;SDS011;23172;53.550;9.964;2023-02-15T21:03:13;32.58;;;26.10;;
37284;SDS011;23172;53.550;9.964;2023-02-15T21:08:18;34.95;;;28.05;;
37284;SDS011;23172;53.550;9.964;2023-02-15T21:13:21;36.88;;;27.80;;
37284;SDS011;23172;53.550;9.964;2023-02-15T21:18:25;31.08;;;24.25;;
37284;SDS011;23172;53.550;9.964;2023-02-15T21:23:31;26.20;;;20.33;;
37284;SDS011;23172;53.550;9.964;2023-02-15T21:28:35;38.92;;;29.63;;
37284;SDS011;23172;53.550;9.964;2023-02-15T21:33:37;34.42;;;26.33;;
37284;SDS011;23172;53.550;9.964;2023-02-15T21:38:40;28.67;;;22.40;;
37284;SDS011;23172;53.550;9.964;2023-02-15T21:43:43;34.15;;;24.63;;
37284;SDS011;23172;53.550;9.964;2023-02-15T21:49:01;27.95;;;22.35;;
37284;SDS011;23172;53.550;9.964;2023-02-15T21:54:09;27.67;;;21.58;;
37284;SDS011;23172;53.550;9.964;2023-02-15T21:59:13;26.08;;;19.80;;
37284;SDS011;23172;53.550;9.964;2023-02-15T22:04:18;18.50;;;15.20;;
37284;SDS011;23172;53.550;9.964;2023-02-15T22:09:26;21.02;;;17.02;;
37284;SDS011;23172;53.550;9.964;2023-02-15T22:14:33;24.40;;;20.40;;
37284;SDS011;23172;53.550;9.964;2023-02-15T22:19:37;19.05;;;15.57;;
37284;SDS011;23172;53.550;9.964;2023-02-15T22:24:40;18.75;;;14.80;;
37284;SDS011;23172;53.550;9.964;2023-02-15T22:29:43;17.42;;;14.27;;
37284;SDS011;23172;53.550;9.964;2023-02-15T22:34:45;14.85;;;12.68;;
37284;SDS011;23172;53.550;9.964;2023-02-15T22:39:48;19.27;;;16.13;;
37284;SDS011;23172;53.550;9.964;2023-02-15T22:44:51;24.02;;;19.40;;
37284;SDS011;23172;53.550;9.964;2023-02-15T22:49:54;17.15;;;14.10;;
37284;SDS011;23172;53.550;9.964;2023-02-15T22:54:58;21.80;;;17.02;;
37284;SDS011;23172;53.550;9.964;2023-02-15T22:59:59;18.80;;;15.80;;
37284;SDS011;23172;53.550;9.964;2023-02-15T23:05:02;23.85;;;18.27;;
37284;SDS011;23172;53.550;9.964;2023-02-15T23:10:06;20.92;;;16.08;;
37284;SDS011;23172;53.550;9.964;2023-02-15T23:15:22;17.85;;;14.57;;
37284;SDS011;23172;53.550;9.964;2023-02-15T23:20:30;20.30;;;15.88;;
37284;SDS011;23172;53.550;9.964;2023-02-15T23:25:34;20.50;;;15.88;;
37284;SDS011;23172;53.550;9.964;2023-02-15T23:30:36;20.23;;;16.42;;
37284;SDS011;23172;53.550;9.964;2023-02-15T23:35:38;17.38;;;14.68;;
37284;SDS011;23172;53.550;9.964;2023-02-15T23:40:42;17.00;;;13.50;;
37284;SDS011;23172;53.550;9.964;2023-02-15T23:46:03;19.23;;;13.60;;
37284;SDS011;23172;53.550;9.964;2023-02-15T23:51:08;15.77;;;11.93;;
37284;SDS011;23172;53.550;9.964;2023-02-15T23:56:17;14.43;;;10.93;;
